createdAt,value
2019-03-19T00:00:58.974Z,92.00
2019-03-19T00:03:28.839Z,92.10
2019-03-19T00:06:01.056Z,92.10
2019-03-19T00:08:30.098Z,92.10
2019-03-19T00:10:59.979Z,92.30
2019-03-19T00:13:30.078Z,92.30
2019-03-19T00:15:59.950Z,92.40
2019-03-19T00:18:29.802Z,92.90
2019-03-19T00:20:59.768Z,92.60
2019-03-19T00:23:29.746Z,92.60
2019-03-19T00:25:59.968Z,92.60
2019-03-19T00:28:30.061Z,92.50
2019-03-19T00:30:59.938Z,92.60
2019-03-19T00:33:30.228Z,92.40
2019-03-19T00:35:59.985Z,92.60
2019-03-19T00:38:29.893Z,92.40
2019-03-19T00:40:59.757Z,92.40
2019-03-19T00:43:29.659Z,92.50
2019-03-19T00:45:59.594Z,92.70
2019-03-19T00:48:29.481Z,92.60
2019-03-19T00:50:59.239Z,92.60
2019-03-19T00:53:29.067Z,92.60
2019-03-19T00:55:58.906Z,92.60
2019-03-19T00:58:29.022Z,92.70
2019-03-19T01:00:58.825Z,92.70
2019-03-19T01:03:28.966Z,93.00
2019-03-19T01:05:58.778Z,92.80
2019-03-19T01:08:28.708Z,92.80
2019-03-19T01:10:58.599Z,92.90
2019-03-19T01:13:28.859Z,92.90
2019-03-19T01:15:58.733Z,93.00
2019-03-19T01:18:28.570Z,92.90
2019-03-19T01:20:58.340Z,93.00
2019-03-19T01:23:28.114Z,93.20
2019-03-19T01:25:57.998Z,93.10
2019-03-19T01:28:28.283Z,93.00
2019-03-19T01:30:58.549Z,93.10
2019-03-19T01:33:28.504Z,93.30
2019-03-19T01:35:58.712Z,93.40
2019-03-19T01:38:29.140Z,93.40
2019-03-19T01:40:59.900Z,93.50
2019-03-19T01:43:29.790Z,93.40
2019-03-19T01:45:59.665Z,93.40
2019-03-19T01:48:29.699Z,93.40
2019-03-19T01:50:59.718Z,93.60
2019-03-19T01:53:29.443Z,93.60
2019-03-19T01:56:05.147Z,93.80
2019-03-19T01:58:30.678Z,93.80
2019-03-19T02:01:00.562Z,93.60
2019-03-19T02:03:30.336Z,93.80
2019-03-19T02:06:00.185Z,93.90
2019-03-19T02:08:30.679Z,94.00
2019-03-19T02:11:00.559Z,94.00
2019-03-19T02:13:30.625Z,94.10
2019-03-19T02:16:00.478Z,94.10
2019-03-19T02:18:30.811Z,94.30
2019-03-19T02:21:00.722Z,94.30
2019-03-19T02:23:30.705Z,94.30
2019-03-19T02:26:00.543Z,94.50
2019-03-19T02:28:30.366Z,94.40
2019-03-19T02:31:00.127Z,94.40
2019-03-19T02:33:30.228Z,94.40
2019-03-19T02:36:00.152Z,94.60
2019-03-19T02:38:29.984Z,94.50
2019-03-19T02:40:59.948Z,94.70
2019-03-19T02:43:29.875Z,94.70
2019-03-19T02:46:00.172Z,94.70
2019-03-19T02:48:30.377Z,94.60
2019-03-19T02:51:00.217Z,94.70
2019-03-19T02:53:30.090Z,94.90
2019-03-19T02:55:59.822Z,94.60
2019-03-19T02:58:29.755Z,94.60
2019-03-19T03:00:59.808Z,94.60
2019-03-19T03:03:30.737Z,94.70
2019-03-19T03:06:00.610Z,94.70
2019-03-19T03:08:30.802Z,94.70
2019-03-19T03:11:00.942Z,94.80
2019-03-19T03:13:30.907Z,94.90
2019-03-19T03:16:00.723Z,94.90
2019-03-19T03:18:31.615Z,95.10
2019-03-19T03:21:01.522Z,94.80
2019-03-19T03:23:31.705Z,95.30
2019-03-19T03:26:01.568Z,95.00
2019-03-19T03:28:31.786Z,95.10
2019-03-19T03:31:02.125Z,95.30
2019-03-19T03:33:32.067Z,95.20
2019-03-19T03:36:01.896Z,95.20
2019-03-19T03:38:32.159Z,95.40
2019-03-19T03:41:02.015Z,95.30
2019-03-19T03:43:31.814Z,95.40
2019-03-19T03:46:02.125Z,95.50
2019-03-19T03:48:31.931Z,95.60
2019-03-19T03:51:01.998Z,95.70
2019-03-19T03:53:31.889Z,95.60
2019-03-19T03:56:01.681Z,95.70
2019-03-19T03:58:31.906Z,95.90
2019-03-19T04:01:01.899Z,95.70
2019-03-19T04:03:31.786Z,95.60
2019-03-19T04:06:01.672Z,95.70
2019-03-19T04:08:31.436Z,95.60
2019-03-19T04:11:01.249Z,95.80
2019-03-19T04:13:31.199Z,95.80
2019-03-19T04:16:01.011Z,95.70
2019-03-19T04:18:31.168Z,95.80
2019-03-19T04:21:00.951Z,95.80
2019-03-19T04:23:30.921Z,95.70
2019-03-19T04:26:01.168Z,95.60
2019-03-19T04:28:31.157Z,95.90
2019-03-19T04:31:00.888Z,95.80
2019-03-19T04:33:30.751Z,95.80
2019-03-19T04:36:00.838Z,95.90
2019-03-19T04:38:30.587Z,96.10
2019-03-19T04:41:00.481Z,95.90
2019-03-19T04:43:30.423Z,95.70
2019-03-19T04:46:00.178Z,96.00
2019-03-19T04:48:30.261Z,96.10
2019-03-19T04:51:00.127Z,96.10
2019-03-19T04:53:29.925Z,96.00
2019-03-19T04:55:59.682Z,96.00
2019-03-19T04:58:29.759Z,96.20
2019-03-19T05:00:59.842Z,96.10
2019-03-19T05:03:29.651Z,96.00
2019-03-19T05:05:59.806Z,96.00
2019-03-19T05:08:29.919Z,95.90
2019-03-19T05:10:59.865Z,95.90
2019-03-19T05:13:29.770Z,96.10
2019-03-19T05:15:59.944Z,96.20
2019-03-19T05:18:31.392Z,96.20
2019-03-19T05:21:01.618Z,96.00
2019-03-19T05:23:31.455Z,96.10
2019-03-19T05:26:01.779Z,95.90
2019-03-19T05:28:31.619Z,96.30
2019-03-19T05:31:01.461Z,96.30
2019-03-19T05:33:31.353Z,96.00
2019-03-19T05:36:01.123Z,96.40
2019-03-19T05:38:30.914Z,96.30
2019-03-19T05:41:01.053Z,96.50
2019-03-19T05:43:30.923Z,96.60
2019-03-19T05:46:00.890Z,96.70
2019-03-19T05:48:30.743Z,96.50
2019-03-19T05:51:00.530Z,96.80
2019-03-19T05:53:30.317Z,96.50
2019-03-19T05:56:00.175Z,96.60
2019-03-19T05:58:30.340Z,96.60
2019-03-19T06:01:00.151Z,96.50
2019-03-19T06:03:29.995Z,96.80
2019-03-19T06:05:59.833Z,96.60
2019-03-19T06:08:29.731Z,96.70
2019-03-19T06:10:59.565Z,96.90
2019-03-19T06:13:29.515Z,96.80
2019-03-19T06:15:59.674Z,96.80
2019-03-19T06:18:35.008Z,96.90
2019-03-19T06:21:01.281Z,97.00
2019-03-19T06:23:31.256Z,97.00
2019-03-19T06:26:01.573Z,96.90
2019-03-19T06:28:31.390Z,97.00
2019-03-19T06:31:01.290Z,96.90
2019-03-19T06:33:31.148Z,96.90
2019-03-19T06:36:00.918Z,96.80
2019-03-19T06:38:30.713Z,96.80
2019-03-19T06:41:00.495Z,96.60
2019-03-19T06:43:30.451Z,96.60
2019-03-19T06:46:00.331Z,96.20
2019-03-19T06:48:30.094Z,96.50
2019-03-19T06:50:59.889Z,96.40
2019-03-19T06:53:29.727Z,96.40
2019-03-19T06:55:59.838Z,96.40
2019-03-19T06:58:29.798Z,96.50
2019-03-19T07:00:59.539Z,96.40
2019-03-19T07:03:29.418Z,96.10
2019-03-19T07:06:00.229Z,95.80
2019-03-19T07:08:30.497Z,95.40
2019-03-19T07:11:00.847Z,95.70
2019-03-19T07:13:30.607Z,95.40
2019-03-19T07:16:00.837Z,95.10
2019-03-19T07:18:30.720Z,95.10
2019-03-19T07:21:01.541Z,94.70
2019-03-19T07:23:31.508Z,94.80
2019-03-19T07:26:01.446Z,94.80
2019-03-19T07:28:31.332Z,94.80
2019-03-19T07:31:01.154Z,94.60
2019-03-19T07:33:30.967Z,94.60
2019-03-19T07:36:00.775Z,94.10
2019-03-19T07:38:33.309Z,93.70
2019-03-19T07:41:02.075Z,93.80
2019-03-19T07:43:31.913Z,94.00
2019-03-19T07:46:01.756Z,94.20
2019-03-19T07:48:31.675Z,94.40
2019-03-19T07:51:01.443Z,93.80
2019-03-19T07:53:31.257Z,93.40
2019-03-19T07:56:01.142Z,93.70
2019-03-19T07:58:40.713Z,92.80
2019-03-19T08:01:02.423Z,92.30
2019-03-19T08:03:32.614Z,92.70
2019-03-19T08:06:02.480Z,92.30
2019-03-19T08:08:32.366Z,91.50
2019-03-19T08:11:02.362Z,90.90
2019-03-19T08:13:32.340Z,90.20
2019-03-19T08:16:02.133Z,90.20
2019-03-19T08:18:32.055Z,90.60
2019-03-19T08:21:02.209Z,90.70
2019-03-19T08:23:32.107Z,90.40
2019-03-19T08:26:02.013Z,90.30
2019-03-19T08:28:33.716Z,87.70
2019-03-19T08:31:03.436Z,89.10
2019-03-19T08:33:33.236Z,87.70
2019-03-19T08:36:09.318Z,86.80
2019-03-19T08:38:34.760Z,85.60
2019-03-19T08:41:04.639Z,87.10
2019-03-19T08:43:34.518Z,86.10
2019-03-19T08:46:04.437Z,84.80
2019-03-19T08:48:34.613Z,84.40
2019-03-19T08:51:04.531Z,83.30
2019-03-19T08:53:34.393Z,82.70
2019-03-19T08:56:04.375Z,81.70
2019-03-19T08:58:34.129Z,81.80
2019-03-19T09:01:04.016Z,85.70
2019-03-19T09:03:33.878Z,82.90
2019-03-19T09:06:03.841Z,81.00
2019-03-19T09:08:33.574Z,80.90
2019-03-19T09:11:03.522Z,84.20
2019-03-19T09:13:33.370Z,83.30
2019-03-19T09:16:03.616Z,84.50
2019-03-19T09:18:33.752Z,84.10
2019-03-19T09:21:03.773Z,83.90
2019-03-19T09:23:33.591Z,80.10
2019-03-19T09:26:04.638Z,81.60
2019-03-19T09:28:34.367Z,79.20
2019-03-19T09:31:04.214Z,78.40
2019-03-19T09:33:34.068Z,77.00
2019-03-19T09:36:03.929Z,74.00
2019-03-19T09:38:33.920Z,75.90
2019-03-19T09:41:04.170Z,79.30
2019-03-19T09:43:33.958Z,80.00
2019-03-19T09:46:04.704Z,80.70
2019-03-19T09:48:34.609Z,81.00
2019-03-19T09:51:04.503Z,81.80
2019-03-19T09:53:34.340Z,78.80
2019-03-19T09:56:04.380Z,81.70
2019-03-19T09:58:34.194Z,80.90
2019-03-19T10:01:04.583Z,77.60
2019-03-19T10:03:34.571Z,77.30
2019-03-19T10:06:14.016Z,76.70
2019-03-19T10:08:36.118Z,76.20
2019-03-19T10:11:06.020Z,71.20
2019-03-19T10:13:35.809Z,73.40
2019-03-19T10:16:07.612Z,75.50
2019-03-19T10:18:38.275Z,74.60
2019-03-19T10:21:08.510Z,74.50
2019-03-19T10:23:38.831Z,69.90
2019-03-19T10:26:09.007Z,69.70
2019-03-19T10:28:38.882Z,70.20
2019-03-19T10:31:08.767Z,67.20
2019-03-19T10:33:38.945Z,70.60
2019-03-19T10:36:08.978Z,71.00
2019-03-19T10:38:38.790Z,69.80
2019-03-19T10:41:09.066Z,70.60
2019-03-19T10:43:38.847Z,72.60
2019-03-19T10:46:09.064Z,69.40
2019-03-19T10:48:38.955Z,65.50
2019-03-19T10:51:08.887Z,66.30
2019-03-19T10:53:38.890Z,69.30
2019-03-19T10:56:08.819Z,68.00
2019-03-19T10:58:39.026Z,68.50
2019-03-19T11:01:09.142Z,67.10
2019-03-19T11:03:39.130Z,69.10
2019-03-19T11:06:09.303Z,71.30
2019-03-19T11:08:39.205Z,70.40
2019-03-19T11:11:09.140Z,73.40
2019-03-19T11:13:39.015Z,71.20
2019-03-19T11:16:08.943Z,72.30
2019-03-19T11:18:39.077Z,70.60
2019-03-19T11:21:08.979Z,66.60
2019-03-19T11:23:39.154Z,68.30
2019-03-19T11:26:08.938Z,68.00
2019-03-19T11:28:39.170Z,67.90
2019-03-19T11:31:08.998Z,67.10
2019-03-19T11:33:40.036Z,65.20
2019-03-19T11:36:09.983Z,64.50
2019-03-19T11:38:40.007Z,61.10
2019-03-19T11:41:10.157Z,60.40
2019-03-19T11:43:40.031Z,61.60
2019-03-19T11:46:09.923Z,60.10
2019-03-19T11:48:40.067Z,63.80
2019-03-19T11:51:10.324Z,64.40
2019-03-19T11:53:40.166Z,66.60
2019-03-19T11:56:09.997Z,64.40
2019-03-19T11:58:39.915Z,65.40
2019-03-19T12:01:09.745Z,65.10
2019-03-19T12:03:39.690Z,65.30
2019-03-19T12:06:09.552Z,60.90
2019-03-19T12:08:39.594Z,59.00
2019-03-19T12:11:09.574Z,59.80
2019-03-19T12:13:39.466Z,58.60
2019-03-19T12:16:09.874Z,54.40
2019-03-19T12:18:39.767Z,55.80
2019-03-19T12:21:10.142Z,57.50
2019-03-19T12:23:39.934Z,57.30
2019-03-19T12:26:09.886Z,60.50
2019-03-19T12:28:40.185Z,59.70
2019-03-19T12:31:10.003Z,58.50
2019-03-19T12:33:41.087Z,58.30
2019-03-19T12:36:11.498Z,58.90
2019-03-19T12:38:41.350Z,60.30
2019-03-19T12:41:11.149Z,60.00
2019-03-19T12:43:40.921Z,57.80
2019-03-19T12:46:11.836Z,57.40
2019-03-19T12:48:42.060Z,58.10
2019-03-19T12:51:11.863Z,59.60
2019-03-19T12:53:41.679Z,59.80
2019-03-19T12:56:11.810Z,59.70
2019-03-19T12:58:41.746Z,59.60
2019-03-19T13:01:12.136Z,59.60
2019-03-19T13:03:42.090Z,59.10
2019-03-19T13:06:11.998Z,59.00
2019-03-19T13:08:41.966Z,59.40
2019-03-19T13:11:11.875Z,57.30
2019-03-19T13:13:41.723Z,56.10
2019-03-19T13:16:11.646Z,58.70
2019-03-19T13:18:41.436Z,60.10
2019-03-19T13:21:11.239Z,56.70
2019-03-19T13:23:41.086Z,57.50
2019-03-19T13:26:11.660Z,57.30
2019-03-19T13:28:43.243Z,58.50
2019-03-19T13:31:13.294Z,58.30
2019-03-19T13:33:43.127Z,58.10
2019-03-19T13:36:13.013Z,58.10
2019-03-19T13:38:43.069Z,56.60
2019-03-19T13:41:13.204Z,57.30
2019-03-19T13:43:43.200Z,56.90
2019-03-19T13:46:13.067Z,56.10
2019-03-19T13:48:42.991Z,54.30
2019-03-19T13:51:12.960Z,54.20
2019-03-19T13:53:42.951Z,55.00
2019-03-19T13:56:12.787Z,54.90
2019-03-19T13:58:42.727Z,56.90
2019-03-19T14:01:12.829Z,57.10
2019-03-19T14:03:42.647Z,57.60
2019-03-19T14:06:12.403Z,57.10
2019-03-19T14:08:42.295Z,54.30
2019-03-19T14:11:12.330Z,53.90
2019-03-19T14:13:42.142Z,51.50
2019-03-19T14:16:11.975Z,49.00
2019-03-19T14:18:41.972Z,46.50
2019-03-19T14:21:12.160Z,47.70
2019-03-19T14:23:41.974Z,47.60
2019-03-19T14:26:12.826Z,46.80
2019-03-19T14:28:42.711Z,45.20
2019-03-19T14:31:13.892Z,45.00
2019-03-19T14:33:43.766Z,46.10
2019-03-19T14:36:13.576Z,43.60
2019-03-19T14:38:47.259Z,46.90
2019-03-19T14:41:15.703Z,43.20
2019-03-19T14:43:45.479Z,45.20
2019-03-19T14:46:15.348Z,47.80
2019-03-19T14:48:45.500Z,50.50
2019-03-19T14:51:15.235Z,47.80
2019-03-19T14:53:45.183Z,49.20
2019-03-19T14:56:14.998Z,49.50
2019-03-19T14:58:44.818Z,48.30
2019-03-19T15:01:19.216Z,50.70
2019-03-19T15:03:46.190Z,52.50
2019-03-19T15:06:16.031Z,51.70
2019-03-19T15:08:45.904Z,50.50
2019-03-19T15:11:15.655Z,51.80
2019-03-19T15:13:45.647Z,53.30
2019-03-19T15:16:15.579Z,53.60
2019-03-19T15:18:45.553Z,54.30
2019-03-19T15:21:15.292Z,55.80
2019-03-19T15:23:45.191Z,57.20
2019-03-19T15:26:15.343Z,57.60
2019-03-19T15:28:45.146Z,57.20
2019-03-19T15:31:14.922Z,57.50
2019-03-19T15:33:45.536Z,56.00
2019-03-19T15:36:15.291Z,54.30
2019-03-19T15:38:45.150Z,52.70
2019-03-19T15:41:14.879Z,47.90
2019-03-19T15:43:44.715Z,49.80
2019-03-19T15:46:14.932Z,50.20
2019-03-19T15:48:44.997Z,49.10
2019-03-19T15:51:15.034Z,46.40
2019-03-19T15:53:44.983Z,46.10
2019-03-19T15:56:14.976Z,47.60
2019-03-19T15:58:45.254Z,47.40
2019-03-19T16:01:16.986Z,46.90
2019-03-19T16:03:46.761Z,46.40
2019-03-19T16:06:16.967Z,47.30
2019-03-19T16:08:46.727Z,48.70
2019-03-19T16:11:16.597Z,49.20
2019-03-19T16:13:46.537Z,50.70
2019-03-19T16:16:17.412Z,50.60
2019-03-19T16:18:47.630Z,50.90
2019-03-19T16:21:17.563Z,50.30
2019-03-19T16:23:47.604Z,51.90
2019-03-19T16:26:17.550Z,50.70
2019-03-19T16:28:47.368Z,53.00
2019-03-19T16:31:17.569Z,53.20
2019-03-19T16:33:47.478Z,52.00
2019-03-19T16:36:18.006Z,52.20
2019-03-19T16:38:48.780Z,52.70
2019-03-19T16:41:18.704Z,54.50
2019-03-19T16:43:49.574Z,54.50
2019-03-19T16:46:19.456Z,54.40
2019-03-19T16:48:49.583Z,54.90
2019-03-19T16:51:20.115Z,53.00
2019-03-19T16:53:49.927Z,54.90
2019-03-19T16:56:20.659Z,54.90
2019-03-19T16:58:50.512Z,56.20
2019-03-19T17:01:20.363Z,56.30
2019-03-19T17:03:50.242Z,56.60
2019-03-19T17:06:20.571Z,57.60
2019-03-19T17:08:50.482Z,56.70
2019-03-19T17:11:20.460Z,56.10
2019-03-19T17:13:50.646Z,58.30
2019-03-19T17:16:20.590Z,57.00
2019-03-19T17:18:50.347Z,58.50
2019-03-19T17:21:20.958Z,58.50
2019-03-19T17:23:50.862Z,59.40
2019-03-19T17:26:20.802Z,61.30
2019-03-19T17:28:50.975Z,61.10
2019-03-19T17:31:20.943Z,60.00
2019-03-19T17:33:50.909Z,62.20
2019-03-19T17:36:20.815Z,60.80
2019-03-19T17:38:50.600Z,61.40
2019-03-19T17:41:20.450Z,60.40
2019-03-19T17:43:50.319Z,59.60
2019-03-19T17:46:20.536Z,60.10
2019-03-19T17:48:52.346Z,60.10
2019-03-19T17:51:22.609Z,60.90
2019-03-19T17:53:52.575Z,61.80
2019-03-19T17:56:23.922Z,60.70
2019-03-19T17:58:53.841Z,61.40
2019-03-19T18:01:23.674Z,61.60
2019-03-19T18:03:53.559Z,62.30
2019-03-19T18:06:23.497Z,65.40
2019-03-19T18:08:53.854Z,65.20
2019-03-19T18:11:23.873Z,66.10
2019-03-19T18:13:53.905Z,66.20
2019-03-19T18:16:23.867Z,66.00
2019-03-19T18:18:53.737Z,67.00
2019-03-19T18:21:23.855Z,66.60
2019-03-19T18:23:54.502Z,64.70
2019-03-19T18:26:24.533Z,65.40
2019-03-19T18:28:54.406Z,66.30
2019-03-19T18:31:24.174Z,65.00
2019-03-19T18:33:54.259Z,65.40
2019-03-19T18:36:24.068Z,65.00
2019-03-19T18:38:54.192Z,65.90
2019-03-19T18:41:23.965Z,65.70
2019-03-19T18:43:53.773Z,65.80
2019-03-19T18:46:23.668Z,65.90
2019-03-19T18:48:54.011Z,66.90
2019-03-19T18:51:23.942Z,68.00
2019-03-19T18:53:53.857Z,69.60
2019-03-19T18:56:23.669Z,68.80
2019-03-19T18:58:53.979Z,68.70
2019-03-19T19:01:23.933Z,69.30
2019-03-19T19:03:53.888Z,69.20
2019-03-19T19:06:23.806Z,67.10
2019-03-19T19:08:53.821Z,66.60
2019-03-19T19:11:23.730Z,66.20
2019-03-19T19:13:53.988Z,66.30
2019-03-19T19:16:24.524Z,66.80
2019-03-19T19:18:54.430Z,66.40
2019-03-19T19:21:24.351Z,66.30
2019-03-19T19:23:54.336Z,66.30
2019-03-19T19:26:24.218Z,66.60
2019-03-19T19:28:54.158Z,66.50
2019-03-19T19:31:24.041Z,66.80
2019-03-19T19:33:53.834Z,67.90
2019-03-19T19:36:23.933Z,67.00
2019-03-19T19:38:53.808Z,67.10
2019-03-19T19:41:23.737Z,67.20
2019-03-19T19:43:53.616Z,67.50
2019-03-19T19:46:23.441Z,67.60
2019-03-19T19:48:53.219Z,68.50
2019-03-19T19:51:23.440Z,67.90
2019-03-19T19:53:53.304Z,68.40
2019-03-19T19:56:23.219Z,68.60
2019-03-19T19:58:54.063Z,69.40
2019-03-19T20:01:24.058Z,70.10
2019-03-19T20:03:53.944Z,69.70
2019-03-19T20:06:23.903Z,69.80
2019-03-19T20:08:54.051Z,70.60
2019-03-19T20:11:24.054Z,69.60
2019-03-19T20:13:54.353Z,69.70
2019-03-19T20:16:24.225Z,70.00
2019-03-19T20:18:54.196Z,70.00
2019-03-19T20:21:24.704Z,70.00
2019-03-19T20:23:54.726Z,70.20
2019-03-19T20:26:24.649Z,70.20
2019-03-19T20:28:54.440Z,69.60
2019-03-19T20:31:24.389Z,70.50
2019-03-19T20:33:54.767Z,71.00
2019-03-19T20:36:24.719Z,70.00
2019-03-19T20:38:54.997Z,70.70
2019-03-19T20:41:24.912Z,70.50
2019-03-19T20:43:54.934Z,71.80
2019-03-19T20:46:24.814Z,72.70
2019-03-19T20:48:54.940Z,72.70
2019-03-19T20:51:24.887Z,73.00
2019-03-19T20:53:54.806Z,73.00
2019-03-19T20:56:24.786Z,73.30
2019-03-19T20:58:54.751Z,72.70
2019-03-19T21:01:25.235Z,73.60
2019-03-19T21:03:55.159Z,73.30
2019-03-19T21:06:25.587Z,74.20
2019-03-19T21:08:55.768Z,73.10
2019-03-19T21:11:25.640Z,74.80
2019-03-19T21:13:55.531Z,74.40
2019-03-19T21:16:25.615Z,75.40
2019-03-19T21:18:56.231Z,75.40
2019-03-19T21:21:26.345Z,75.50
2019-03-19T21:23:56.320Z,75.60
2019-03-19T21:26:26.672Z,75.80
2019-03-19T21:28:56.970Z,75.00
2019-03-19T21:31:27.187Z,76.20
2019-03-19T21:33:56.991Z,75.90
2019-03-19T21:36:26.874Z,76.00
2019-03-19T21:38:57.358Z,75.90
2019-03-19T21:41:27.542Z,75.70
2019-03-19T21:43:57.938Z,76.20
2019-03-19T21:46:27.971Z,75.90
2019-03-19T21:48:58.218Z,75.90
2019-03-19T21:51:27.997Z,76.10
2019-03-19T21:53:57.824Z,75.80
2019-03-19T21:56:27.761Z,75.80
2019-03-19T21:58:57.723Z,75.70
2019-03-19T22:01:27.620Z,75.50
2019-03-19T22:04:03.094Z,75.70
2019-03-19T22:06:29.449Z,76.30
2019-03-19T22:08:59.327Z,76.20
2019-03-19T22:11:29.314Z,76.10
2019-03-19T22:13:59.459Z,77.00
2019-03-19T22:16:29.402Z,77.30
2019-03-19T22:18:59.296Z,77.80
2019-03-19T22:21:29.164Z,77.80
2019-03-19T22:23:58.947Z,78.10
2019-03-19T22:26:29.041Z,78.70
2019-03-19T22:28:59.040Z,79.40
2019-03-19T22:31:29.279Z,79.60
2019-03-19T22:33:59.271Z,80.00
2019-03-19T22:36:29.475Z,80.50
2019-03-19T22:38:59.356Z,80.80
2019-03-19T22:41:29.492Z,81.10
2019-03-19T22:43:59.407Z,81.00
2019-03-19T22:46:29.344Z,81.20
2019-03-19T22:48:59.277Z,81.80
2019-03-19T22:51:29.143Z,82.10
2019-03-19T22:53:59.306Z,82.10
2019-03-19T22:56:30.127Z,82.30
2019-03-19T22:59:00.060Z,82.60
2019-03-19T23:01:30.004Z,81.50
2019-03-19T23:03:59.963Z,82.00
2019-03-19T23:06:30.888Z,81.20
2019-03-19T23:09:54.774Z,81.80
2019-03-19T23:12:42.859Z,81.80
2019-03-19T23:16:07.030Z,81.60
2019-03-19T23:18:49.065Z,81.30
2019-03-19T23:21:19.082Z,81.60
2019-03-19T23:23:48.877Z,82.00
2019-03-19T23:26:18.830Z,81.80
2019-03-19T23:28:48.772Z,82.00
2019-03-19T23:31:18.714Z,82.10
2019-03-19T23:33:48.725Z,82.50
2019-03-19T23:36:18.600Z,82.50
2019-03-19T23:38:48.488Z,82.40
2019-03-19T23:41:20.337Z,83.10
2019-03-19T23:43:50.210Z,83.20
2019-03-19T23:46:20.515Z,83.40
2019-03-19T23:48:50.275Z,83.30
2019-03-19T23:51:20.209Z,83.60
2019-03-19T23:53:50.189Z,83.50
2019-03-19T23:56:20.013Z,83.80
2019-03-19T23:58:49.894Z,83.80
